Time;durP1;ratioP1;P1;durP2;ratioP2;P2;SDS_P1;SDS_P2;PMS_P1;PMS_P2;Temp;Humidity;BMP_temperature;BMP_pressure;BME280_temperature;BME280_humidity;BME280_pressure;Samples;Min_cycle;Max_cycle;Signal;HPM_P1;HPM_P2
2023/08/20 00:00:33;;;;;;;0.00;0.00;;;22.50;99.90;;;;;;5020040;28;20590;-87
2023/08/20 00:03:03;;;;;;;0.00;0.00;;;22.50;99.90;;;;;;5024109;28;20069;-90
2023/08/20 00:05:32;;;;;;;0.00;0.00;;;22.30;99.90;;;;;;5026926;28;20111;-89
2023/08/20 00:07:58;;;;;;;0.00;0.00;;;22.20;99.90;;;;;;5026120;28;20030;-89
2023/08/20 00:10:23;;;;;;;0.00;0.00;;;22.20;99.90;;;;;;5022010;28;20171;-87
2023/08/20 00:12:49;;;;;;;0.00;0.00;;;;;;;;;;5024386;28;20116;-86
2023/08/20 00:15:15;;;;;;;0.00;0.00;;;21.90;99.90;;;;;;5028166;28;20026;-87
2023/08/20 00:17:41;;;;;;;0.00;0.00;;;21.80;99.90;;;;;;5019352;28;20036;-89
2023/08/20 00:20:15;;;;;;;0.00;0.00;;;21.70;99.90;;;;;;5026893;28;20025;-87
2023/08/20 00:22:42;;;;;;;0.00;0.00;;;21.70;99.90;;;;;;5024065;28;20478;-89
2023/08/20 00:25:08;;;;;;;0.00;0.00;;;21.50;99.90;;;;;;5017273;28;20033;-85
2023/08/20 00:27:34;;;;;;;0.00;0.00;;;21.50;99.90;;;;;;5021842;28;20022;-88
2023/08/20 00:30:00;;;;;;;0.00;0.00;;;;;;;;;;5021827;28;20116;-88
2023/08/20 00:32:26;;;;;;;0.00;0.00;;;;;;;;;;5022787;28;20028;-89
2023/08/20 00:34:52;;;;;;;0.00;0.00;;;;;;;;;;5019257;28;20037;-88
2023/08/20 00:37:18;;;;;;;0.00;0.00;;;;;;;;;;5025412;28;20042;-89
2023/08/20 00:39:43;;;;;;;0.00;0.00;;;21.10;99.90;;;;;;5042568;28;20043;-89
2023/08/20 00:42:09;;;;;;;0.00;0.00;;;21.00;99.90;;;;;;5024166;28;20039;-88
2023/08/20 00:44:35;;;;;;;0.00;0.00;;;20.90;99.90;;;;;;5029661;28;20036;-88
2023/08/20 00:47:04;;;;;;;0.00;0.00;;;20.90;99.90;;;;;;5024963;28;20078;-88
2023/08/20 00:49:31;;;;;;;0.00;0.00;;;20.80;99.90;;;;;;5021041;28;20030;-88
2023/08/20 00:51:58;;;;;;;0.00;0.00;;;23.20;99.90;;;;;;5022993;28;20025;-89
2023/08/20 00:54:24;;;;;;;0.00;0.00;;;20.60;99.90;;;;;;5027345;28;20037;-87
2023/08/20 00:56:50;;;;;;;0.00;0.00;;;20.50;99.90;;;;;;5024277;28;20034;-89
2023/08/20 00:59:17;;;;;;;0.00;0.00;;;20.50;99.90;;;;;;5019226;28;20401;-89
2023/08/20 01:01:43;;;;;;;0.00;0.00;;;22.20;99.90;;;;;;5022719;28;20167;-88
2023/08/20 01:04:09;;;;;;;0.00;0.00;;;21.60;99.90;;;;;;5018944;28;20045;-86
2023/08/20 01:06:49;;;;;;;0.00;0.00;;;20.30;99.90;;;;;;5030385;28;20021;-89
2023/08/20 01:09:27;;;;;;;0.00;0.00;;;20.30;99.90;;;;;;5040032;28;20080;-89
2023/08/20 01:11:58;;;;;;;0.00;0.00;;;20.20;99.90;;;;;;5030855;28;20116;-88
2023/08/20 01:14:23;;;;;;;0.00;0.00;;;20.20;99.90;;;;;;5030408;28;20037;-87
2023/08/20 01:16:49;;;;;;;0.00;0.00;;;20.20;99.90;;;;;;5021869;28;20082;-88
2023/08/20 01:19:21;;;;;;;0.00;0.00;;;20.10;99.90;;;;;;5023342;28;20032;-88
2023/08/20 01:22:01;;;;;;;0.00;0.00;;;20.30;99.90;;;;;;5028366;28;20509;-85
2023/08/20 01:25:08;;;;;;;0.00;0.00;;;20.10;99.90;;;;;;5042239;28;20029;-84
2023/08/20 01:28:13;;;;;;;0.00;0.00;;;20.10;99.90;;;;;;4966270;28;20034;-87
2023/08/20 01:30:39;;;;;;;0.00;0.00;;;20.10;99.90;;;;;;5038080;28;20479;-85
2023/08/20 01:33:06;;;;;;;0.00;0.00;;;20.00;99.90;;;;;;5026789;28;20021;-87
2023/08/20 01:35:32;;;;;;;0.00;0.00;;;20.00;99.90;;;;;;5030611;28;20044;-85
2023/08/20 01:37:57;;;;;;;0.00;0.00;;;22.30;99.90;;;;;;5038576;28;20030;-85
2023/08/20 01:40:23;;;;;;;0.00;0.00;;;;;;;;;;5033805;28;20398;-83
2023/08/20 01:42:49;;;;;;;0.00;0.00;;;;;;;;;;5027657;28;20498;-87
2023/08/20 01:45:15;;;;;;;0.00;0.00;;;;;;;;;;5019501;28;20506;-88
2023/08/20 01:47:41;;;;;;;0.00;0.00;;;19.50;99.90;;;;;;5022123;28;20022;-85
2023/08/20 01:50:06;;;;;;;0.00;0.00;;;19.50;99.90;;;;;;5028915;28;20419;-85
2023/08/20 01:52:32;;;;;;;0.00;0.00;;;19.50;99.90;;;;;;5043258;28;20021;-83
2023/08/20 01:54:58;;;;;;;0.00;0.00;;;19.30;99.90;;;;;;5032022;28;20029;-85
2023/08/20 01:57:24;;;;;;;0.00;0.00;;;;;;;;;;5030562;28;20030;-86
2023/08/20 01:59:50;;;;;;;0.00;0.00;;;;;;;;;;5030911;28;20482;-84
2023/08/20 02:02:16;;;;;;;0.00;0.00;;;;;;;;;;5034708;28;20482;-86
2023/08/20 02:04:41;;;;;;;0.00;0.00;;;;;;;;;;5037940;28;20057;-85
2023/08/20 02:07:07;;;;;;;0.00;0.00;;;;;;;;;;5022342;28;20026;-86
2023/08/20 02:09:33;;;;;;;0.00;0.00;;;;;;;;;;5023032;28;20025;-86
2023/08/20 02:11:59;;;;;;;0.00;0.00;;;;;;;;;;5017336;28;20026;-87
2023/08/20 02:14:27;;;;;;;0.00;0.00;;;;;;;;;;5024483;28;20460;-86
2023/08/20 02:16:52;;;;;;;0.00;0.00;;;19.10;99.90;;;;;;5019792;28;20052;-86
2023/08/20 02:19:18;;;;;;;0.00;0.00;;;19.00;99.90;;;;;;5020040;28;20483;-85
2023/08/20 02:21:43;;;;;;;0.00;0.00;;;;;;;;;;5023133;28;20028;-86
2023/08/20 02:24:09;;;;;;;0.00;0.00;;;18.90;99.90;;;;;;5021157;28;20075;-86
2023/08/20 02:26:35;;;;;;;0.00;0.00;;;;;;;;;;5015668;28;20029;-84
2023/08/20 02:29:02;;;;;;;0.00;0.00;;;;;;;;;;5039660;28;20041;-85
2023/08/20 02:31:27;;;;;;;0.00;0.00;;;18.80;99.90;;;;;;5019580;28;21079;-86
2023/08/20 02:33:53;;;;;;;0.00;0.00;;;;;;;;;;5019872;28;20040;-87
2023/08/20 02:36:19;;;;;;;0.00;0.00;;;;;;;;;;5020496;28;20095;-84
2023/08/20 02:38:46;;;;;;;0.00;0.00;;;;;;;;;;5034102;28;20125;-86
2023/08/20 02:41:12;;;;;;;0.00;0.00;;;18.60;99.90;;;;;;5035519;28;20074;-84
2023/08/20 02:43:37;;;;;;;0.00;0.00;;;18.60;99.90;;;;;;5028682;28;20017;-85
2023/08/20 02:46:03;;;;;;;0.00;0.00;;;;;;;;;;5022134;28;20045;-85
2023/08/20 02:48:30;;;;;;;0.00;0.00;;;;;;;;;;5018889;28;20021;-87
2023/08/20 02:50:55;;;;;;;0.00;0.00;;;18.50;99.90;;;;;;5019753;28;20395;-89
2023/08/20 02:53:22;;;;;;;0.00;0.00;;;18.50;99.90;;;;;;5020008;28;20025;-87
2023/08/20 02:55:48;;;;;;;0.00;0.00;;;18.50;99.90;;;;;;5018613;28;20037;-87
2023/08/20 02:58:14;;;;;;;0.00;0.00;;;;;;;;;;5020941;28;20029;-86
2023/08/20 03:00:40;;;;;;;0.00;0.00;;;;;;;;;;5021453;28;20037;-84
2023/08/20 03:03:08;;;;;;;0.00;0.00;;;;;;;;;;5037129;28;20037;-86
2023/08/20 03:05:34;;;;;;;0.00;0.00;;;18.50;99.90;;;;;;5024736;28;20029;-87
2023/08/20 03:08:00;;;;;;;0.00;0.00;;;18.50;99.90;;;;;;5018312;28;20558;-85
2023/08/20 03:10:29;;;;;;;0.00;0.00;;;18.50;99.90;;;;;;5016155;28;20042;-87
2023/08/20 03:12:55;;;;;;;0.00;0.00;;;18.50;99.90;;;;;;5026189;28;20025;-85
2023/08/20 03:15:21;;;;;;;0.00;0.00;;;;;;;;;;5018242;28;20112;-86
2023/08/20 03:17:46;;;;;;;0.00;0.00;;;18.60;99.90;;;;;;5021788;28;20042;-86
2023/08/20 03:20:12;;;;;;;0.00;0.00;;;18.50;99.90;;;;;;5027145;28;20026;-87
2023/08/20 03:22:38;;;;;;;0.00;0.00;;;;;;;;;;5021566;28;20037;-86
2023/08/20 03:25:05;;;;;;;0.00;0.00;;;18.40;99.90;;;;;;5023391;28;20060;-86
2023/08/20 03:27:31;;;;;;;0.00;0.00;;;18.30;99.90;;;;;;5020159;28;20099;-85
2023/08/20 03:29:57;;;;;;;0.00;0.00;;;18.40;99.90;;;;;;5016965;28;20030;-86
2023/08/20 03:32:23;;;;;;;0.00;0.00;;;18.40;99.90;;;;;;5015760;28;20160;-86
2023/08/20 03:34:49;;;;;;;0.00;0.00;;;18.50;99.90;;;;;;5017733;28;20606;-85
2023/08/20 03:37:15;;;;;;;0.00;0.00;;;;;;;;;;5026833;28;20040;-87
2023/08/20 03:39:40;;;;;;;0.00;0.00;;;;;;;;;;5034808;28;20021;-85
2023/08/20 03:42:06;;;;;;;0.00;0.00;;;;;;;;;;5021443;28;20042;-86
2023/08/20 03:44:32;;;;;;;0.00;0.00;;;;;;;;;;5018922;28;20030;-86
2023/08/20 03:46:58;;;;;;;0.00;0.00;;;;;;;;;;5022844;28;20029;-85
2023/08/20 03:49:24;;;;;;;0.00;0.00;;;18.50;99.90;;;;;;5021248;28;20114;-85
2023/08/20 03:51:50;;;;;;;0.00;0.00;;;18.50;99.90;;;;;;5021575;28;20491;-85
2023/08/20 03:54:16;;;;;;;0.00;0.00;;;;;;;;;;5022617;28;20541;-86
2023/08/20 03:56:41;;;;;;;0.00;0.00;;;;;;;;;;5038937;28;20025;-86
2023/08/20 03:59:08;;;;;;;0.00;0.00;;;;;;;;;;5026470;28;20056;-86
2023/08/20 04:01:35;;;;;;;0.00;0.00;;;18.60;99.90;;;;;;5024579;28;20072;-85
2023/08/20 04:04:01;;;;;;;0.00;0.00;;;18.60;99.90;;;;;;5028182;28;20025;-85
2023/08/20 04:06:27;;;;;;;0.00;0.00;;;;;;;;;;5021151;28;20080;-85
2023/08/20 04:08:53;;;;;;;0.00;0.00;;;;;;;;;;5023809;28;20658;-85
2023/08/20 04:11:19;;;;;;;0.00;0.00;;;;;;;;;;5030221;28;20469;-85
2023/08/20 04:13:45;;;;;;;0.00;0.00;;;;;;;;;;5031905;28;20544;-87
2023/08/20 04:16:11;;;;;;;0.00;0.00;;;18.50;99.90;;;;;;5032759;28;20064;-85
2023/08/20 04:18:36;;;;;;;0.00;0.00;;;;;;;;;;5033061;28;20403;-85
2023/08/20 04:21:02;;;;;;;0.00;0.00;;;;;;;;;;5031434;28;20029;-86
2023/08/20 04:23:28;;;;;;;0.00;0.00;;;;;;;;;;5049514;28;20118;-85
2023/08/20 04:25:54;;;;;;;0.00;0.00;;;;;;;;;;5029275;28;20022;-85
2023/08/20 04:28:20;;;;;;;0.00;0.00;;;;;;;;;;5018300;28;20550;-88
2023/08/20 04:30:46;;;;;;;0.00;0.00;;;;;;;;;;5021722;28;20026;-90
2023/08/20 04:33:12;;;;;;;0.00;0.00;;;18.40;99.90;;;;;;5018150;28;20124;-89
2023/08/20 04:35:38;;;;;;;0.00;0.00;;;;;;;;;;5020298;28;20033;-88
2023/08/20 04:38:04;;;;;;;0.00;0.00;;;;;;;;;;5021630;28;20037;-87
2023/08/20 04:40:30;;;;;;;0.00;0.00;;;;;;;;;;5020916;28;20168;-86
2023/08/20 04:42:56;;;;;;;0.00;0.00;;;;;;;;;;5034564;28;20057;-87
2023/08/20 04:45:22;;;;;;;0.00;0.00;;;;;;;;;;5032069;28;20029;-88
2023/08/20 04:47:48;;;;;;;0.00;0.00;;;;;;;;;;5022823;28;20033;-89
2023/08/20 04:50:14;;;;;;;0.00;0.00;;;;;;;;;;5018257;28;20136;-90
2023/08/20 04:52:39;;;;;;;0.00;0.00;;;18.50;99.90;;;;;;5029147;28;20028;-89
2023/08/20 04:55:09;;;;;;;0.00;0.00;;;18.60;99.90;;;;;;5026943;28;20398;-88
2023/08/20 04:57:35;;;;;;;0.00;0.00;;;;;;;;;;5022543;28;20029;-88
2023/08/20 05:00:01;;;;;;;0.00;0.00;;;;;;;;;;5024258;28;20036;-87
2023/08/20 05:02:26;;;;;;;0.00;0.00;;;;;;;;;;5022233;28;20062;-87
2023/08/20 05:04:52;;;;;;;0.00;0.00;;;;;;;;;;5026282;28;20030;-86
2023/08/20 05:07:18;;;;;;;0.00;0.00;;;18.60;99.90;;;;;;5021100;28;20072;-88
2023/08/20 05:09:44;;;;;;;0.00;0.00;;;;;;;;;;5018269;28;20053;-88
2023/08/20 05:12:10;;;;;;;0.00;0.00;;;18.60;99.90;;;;;;5021641;28;20029;-88
2023/08/20 05:14:36;;;;;;;0.00;0.00;;;;;;;;;;5027999;28;20017;-88
2023/08/20 05:17:02;;;;;;;0.00;0.00;;;18.60;99.90;;;;;;5036822;28;20099;-88
2023/08/20 05:19:28;;;;;;;0.00;0.00;;;18.70;99.90;;;;;;5030313;28;20037;-89
2023/08/20 05:21:55;;;;;;;0.00;0.00;;;;;;;;;;5022991;28;20033;-88
2023/08/20 05:24:22;;;;;;;0.00;0.00;;;18.60;99.90;;;;;;5017926;28;20040;-84
2023/08/20 05:26:49;;;;;;;0.00;0.00;;;18.60;99.90;;;;;;5018636;28;20049;-86
2023/08/20 05:29:15;;;;;;;0.00;0.00;;;18.70;99.90;;;;;;5025903;28;20022;-87
2023/08/20 05:31:41;;;;;;;0.00;0.00;;;;;;;;;;5021592;28;20021;-88
2023/08/20 05:34:06;;;;;;;0.00;0.00;;;18.60;99.90;;;;;;5024236;28;20026;-88
2023/08/20 05:36:32;;;;;;;0.00;0.00;;;;;;;;;;5021684;28;20018;-88
2023/08/20 05:38:58;;;;;;;0.00;0.00;;;;;;;;;;5020592;28;20025;-88
2023/08/20 05:41:24;;;;;;;0.00;0.00;;;18.80;99.90;;;;;;5037883;28;20125;-87
2023/08/20 05:43:50;;;;;;;0.00;0.00;;;;;;;;;;5024808;28;20026;-89
2023/08/20 05:46:15;;;;;;;0.00;0.00;;;18.80;99.90;;;;;;5036792;28;20021;-89
2023/08/20 05:48:41;;;;;;;0.00;0.00;;;;;;;;;;5018544;28;20502;-90
2023/08/20 05:51:07;;;;;;;0.00;0.00;;;18.90;99.90;;;;;;5021381;28;20026;-89
2023/08/20 05:53:33;;;;;;;0.00;0.00;;;;;;;;;;5014878;28;20025;-87
2023/08/20 05:55:58;;;;;;;0.00;0.00;;;;;;;;;;5023724;28;20026;-87
2023/08/20 05:58:24;;;;;;;0.00;0.00;;;;;;;;;;5038019;28;20036;-88
2023/08/20 06:00:50;;;;;;;0.00;0.00;;;19.20;99.90;;;;;;5024857;28;20116;-85
2023/08/20 06:03:16;;;;;;;0.00;0.00;;;;;;;;;;5026450;28;20105;-86
2023/08/20 06:05:41;;;;;;;0.00;0.00;;;19.20;99.90;;;;;;5022528;28;20387;-86
2023/08/20 06:08:07;;;;;;;0.00;0.00;;;;;;;;;;5030467;28;20024;-85
2023/08/20 06:10:33;;;;;;;0.00;0.00;;;19.30;99.90;;;;;;5018898;28;20022;-87
2023/08/20 06:12:59;;;;;;;0.00;0.00;;;;;;;;;;5018532;28;20021;-86
2023/08/20 06:15:25;;;;;;;0.00;0.00;;;;;;;;;;5015124;28;20018;-87
2023/08/20 06:17:51;;;;;;;0.00;0.00;;;;;;;;;;5024793;28;20083;-86
2023/08/20 06:20:18;;;;;;;0.00;0.00;;;;;;;;;;5029305;28;20045;-86
2023/08/20 06:22:44;;;;;;;0.00;0.00;;;19.50;99.90;;;;;;5020234;28;20029;-85
2023/08/20 06:25:09;;;;;;;0.00;0.00;;;;;;;;;;5026453;28;20025;-86
2023/08/20 06:27:35;;;;;;;0.00;0.00;;;19.50;99.90;;;;;;5021739;28;20017;-88
2023/08/20 06:30:01;;;;;;;0.00;0.00;;;;;;;;;;5016771;28;20096;-86
2023/08/20 06:32:27;;;;;;;0.00;0.00;;;;;;;;;;5025985;28;20506;-87
2023/08/20 06:34:52;;;;;;;0.00;0.00;;;19.70;99.90;;;;;;5027007;28;20491;-86
2023/08/20 06:37:18;;;;;;;0.00;0.00;;;19.70;99.90;;;;;;5019079;28;20063;-86
2023/08/20 06:39:43;;;;;;;0.00;0.00;;;19.70;99.90;;;;;;5021732;28;20025;-86
2023/08/20 06:42:09;;;;;;;0.00;0.00;;;;;;;;;;5019060;28;20026;-85
2023/08/20 06:44:35;;;;;;;0.00;0.00;;;19.80;99.90;;;;;;5046809;28;20513;-84
2023/08/20 06:47:01;;;;;;;0.00;0.00;;;20.00;99.90;;;;;;5031209;28;20498;-86
2023/08/20 06:49:27;;;;;;;0.00;0.00;;;;;;;;;;5016369;28;20022;-86
2023/08/20 06:51:53;;;;;;;0.00;0.00;;;20.10;99.90;;;;;;5027423;28;20478;-85
2023/08/20 06:54:18;;;;;;;0.00;0.00;;;;;;;;;;5031832;28;20080;-84
2023/08/20 06:56:44;;;;;;;0.00;0.00;;;;;;;;;;5031329;28;20030;-85
2023/08/20 06:59:10;;;;;;;0.00;0.00;;;;;;;;;;5020378;28;20030;-90
2023/08/20 07:01:36;;;;;;;0.00;0.00;;;;;;;;;;5027035;28;20022;-85
2023/08/20 07:04:02;;;;;;;0.00;0.00;;;;;;;;;;5018379;28;20555;-85
2023/08/20 07:06:28;;;;;;;0.00;0.00;;;20.50;99.90;;;;;;5023773;28;20514;-86
2023/08/20 07:08:54;;;;;;;0.00;0.00;;;;;;;;;;5024472;28;20181;-85
2023/08/20 07:11:20;;;;;;;0.00;0.00;;;;;;;;;;5025127;28;20029;-86
2023/08/20 07:13:46;;;;;;;0.00;0.00;;;;;;;;;;5030938;28;20479;-86
2023/08/20 07:16:12;;;;;;;0.00;0.00;;;;;;;;;;5030000;28;20068;-86
2023/08/20 07:18:38;;;;;;;0.00;0.00;;;;;;;;;;5030124;28;20033;-87
2023/08/20 07:21:04;;;;;;;0.00;0.00;;;;;;;;;;5030512;28;20073;-86
2023/08/20 07:23:30;;;;;;;0.00;0.00;;;;;;;;;;5027169;28;20029;-86
2023/08/20 07:26:06;;;;;;;0.00;0.00;;;20.80;99.90;;;;;;5028482;28;20037;-86
2023/08/20 07:31:21;;;;;;;0.00;0.00;;;21.00;99.90;;;;;;5029017;28;20049;-87
2023/08/20 07:33:48;;;;;;;0.00;0.00;;;21.10;99.90;;;;;;5030149;28;20023;-84
2023/08/20 07:36:14;;;;;;;0.00;0.00;;;24.10;99.90;;;;;;5040358;28;20021;-86
2023/08/20 07:38:42;;;;;;;0.00;0.00;;;21.20;99.90;;;;;;5032797;28;20029;-86
2023/08/20 07:41:08;;;;;;;0.00;0.00;;;23.50;99.90;;;;;;5027645;28;20029;-85
2023/08/20 07:43:34;;;;;;;0.00;0.00;;;22.00;99.90;;;;;;5025852;28;20445;-84
2023/08/20 07:46:00;;;;;;;0.00;0.00;;;;;;;;;;5022218;28;20056;-87
2023/08/20 07:48:26;;;;;;;0.00;0.00;;;;;;;;;;5032023;28;20029;-87
2023/08/20 07:50:51;;;;;;;0.00;0.00;;;;;;;;;;5041553;28;20014;-86
2023/08/20 07:53:17;;;;;;;0.00;0.00;;;;;;;;;;5033172;28;20364;-86
2023/08/20 07:55:44;;;;;;;0.00;0.00;;;21.60;99.90;;;;;;5027637;28;20461;-86
2023/08/20 07:58:10;;;;;;;0.00;0.00;;;21.60;99.90;;;;;;5026274;28;20032;-87
2023/08/20 08:00:35;;;;;;;0.00;0.00;;;21.80;99.90;;;;;;5025499;28;20029;-85
2023/08/20 08:03:01;;;;;;;0.00;0.00;;;;;;;;;;5024756;28;20060;-86
2023/08/20 08:05:27;;;;;;;0.00;0.00;;;;;;;;;;5025092;28;20034;-85
2023/08/20 08:07:53;;;;;;;0.00;0.00;;;;;;;;;;5056886;28;20027;-86
2023/08/20 08:10:19;;;;;;;0.00;0.00;;;22.00;99.90;;;;;;5024112;28;20065;-85
2023/08/20 08:12:45;;;;;;;0.00;0.00;;;;;;;;;;5027633;28;20072;-86
2023/08/20 08:15:12;;;;;;;0.00;0.00;;;;;;;;;;5030219;28;20025;-86
2023/08/20 08:17:37;;;;;;;0.00;0.00;;;22.20;99.90;;;;;;5030618;28;20021;-87
2023/08/20 08:20:03;;;;;;;0.00;0.00;;;;;;;;;;5043746;28;20025;-86
2023/08/20 08:22:29;;;;;;;0.00;0.00;;;22.30;99.90;;;;;;5037030;28;20060;-85
2023/08/20 08:24:55;;;;;;;0.00;0.00;;;;;;;;;;5032800;28;20064;-86
2023/08/20 08:27:21;;;;;;;0.00;0.00;;;;;;;;;;5038196;28;20021;-86
2023/08/20 08:29:47;;;;;;;0.00;0.00;;;22.50;99.90;;;;;;5043386;28;20029;-85
2023/08/20 08:32:12;;;;;;;0.00;0.00;;;22.60;99.90;;;;;;5022337;28;20026;-86
2023/08/20 08:34:38;;;;;;;0.00;0.00;;;22.60;99.90;;;;;;5033171;28;20041;-86
2023/08/20 08:37:03;;;;;;;0.00;0.00;;;23.60;99.90;;;;;;5029189;28;20057;-86
2023/08/20 08:39:29;;;;;;;0.00;0.00;;;;;;;;;;5030481;28;20057;-85
2023/08/20 08:42:07;;;;;;;0.00;0.00;;;22.80;99.90;;;;;;5030751;28;20068;-86
2023/08/20 08:44:33;;;;;;;0.00;0.00;;;22.80;99.90;;;;;;5028659;28;20394;-86
2023/08/20 08:46:59;;;;;;;0.00;0.00;;;22.90;99.90;;;;;;5031833;28;20017;-88
2023/08/20 08:49:26;;;;;;;0.00;0.00;;;23.00;99.90;;;;;;5024340;28;20391;-86
2023/08/20 08:51:56;;;;;;;0.00;0.00;;;25.00;99.90;;;;;;5034974;28;20026;-85
2023/08/20 08:54:22;;;;;;;0.00;0.00;;;23.40;99.90;;;;;;5040519;28;20048;-85
2023/08/20 08:56:47;;;;;;;0.00;0.00;;;23.10;99.90;;;;;;5030640;28;20109;-86
2023/08/20 08:59:13;;;;;;;0.00;0.00;;;;;;;;;;5029322;28;20057;-85
2023/08/20 09:01:42;;;;;;;0.00;0.00;;;23.20;99.90;;;;;;5026832;28;20072;-87
2023/08/20 09:04:08;;;;;;;0.00;0.00;;;23.80;99.90;;;;;;5026620;28;20025;-87
2023/08/20 09:06:50;;;;;;;0.00;0.00;;;23.90;99.90;;;;;;5027497;28;20013;-87
2023/08/20 09:09:21;;;;;;;0.00;0.00;;;25.80;99.90;;;;;;5023309;28;20049;-85
2023/08/20 09:11:47;;;;;;;0.00;0.00;;;23.20;99.90;;;;;;5023962;28;20075;-86
2023/08/20 09:14:24;;;;;;;0.00;0.00;;;26.50;99.90;;;;;;5023680;28;20022;-85
2023/08/20 09:17:01;;;;;;;0.00;0.00;;;23.60;99.90;;;;;;5022872;28;20024;-86
2023/08/20 09:19:37;;;;;;;0.00;0.00;;;23.80;99.90;;;;;;5029293;28;20022;-85
2023/08/20 09:22:02;;;;;;;0.00;0.00;;;24.20;99.90;;;;;;5031433;28;20105;-85
2023/08/20 09:24:39;;;;;;;0.00;0.00;;;23.70;99.90;;;;;;5027775;28;20057;-86
2023/08/20 09:27:05;;;;;;;0.00;0.00;;;26.20;99.90;;;;;;5029866;28;20026;-86
2023/08/20 09:29:54;;;;;;;0.00;0.00;;;23.90;99.90;;;;;;5016886;28;20025;-86
2023/08/20 09:32:22;;;;;;;0.00;0.00;;;24.00;99.90;;;;;;5043302;28;20026;-86
2023/08/20 09:34:52;;;;;;;0.00;0.00;;;23.90;99.90;;;;;;5029578;28;20062;-85
2023/08/20 09:37:19;;;;;;;0.00;0.00;;;24.00;99.90;;;;;;5024687;28;20045;-85
2023/08/20 09:39:45;;;;;;;0.00;0.00;;;24.10;99.90;;;;;;5026658;28;20025;-85
2023/08/20 09:42:11;;;;;;;0.00;0.00;;;;;;;;;;5029220;28;20451;-87
2023/08/20 09:44:46;;;;;;;0.00;0.00;;;24.20;99.90;;;;;;5023784;28;20502;-86
2023/08/20 09:47:13;;;;;;;0.00;0.00;;;24.30;99.90;;;;;;5022085;28;20379;-85
2023/08/20 09:49:43;;;;;;;0.00;0.00;;;24.70;99.90;;;;;;5025746;28;20025;-85
2023/08/20 09:52:11;;;;;;;0.00;0.00;;;24.50;99.90;;;;;;5020111;28;20022;-85
2023/08/20 09:55:07;;;;;;;0.00;0.00;;;26.20;99.90;;;;;;5023321;28;20036;-86
2023/08/20 09:57:40;;;;;;;0.00;0.00;;;24.40;99.90;;;;;;5019069;28;20029;-87
2023/08/20 10:00:11;;;;;;;0.00;0.00;;;24.20;99.90;;;;;;5020851;28;20052;-87
2023/08/20 10:02:38;;;;;;;0.00;0.00;;;24.40;99.90;;;;;;5024639;28;20454;-88
2023/08/20 10:05:11;;;;;;;0.00;0.00;;;24.50;99.90;;;;;;5017877;28;20045;-87
2023/08/20 10:07:37;;;;;;;0.00;0.00;;;24.60;99.90;;;;;;5011722;28;20041;-86
2023/08/20 10:10:05;;;;;;;0.00;0.00;;;27.00;99.90;;;;;;5021723;28;20429;-87
2023/08/20 10:12:34;;;;;;;0.00;0.00;;;24.80;99.90;;;;;;5026350;28;20495;-85
2023/08/20 10:15:33;;;;;;;0.00;0.00;;;24.80;99.90;;;;;;5017682;28;20022;-85
2023/08/20 10:18:00;;;;;;;0.00;0.00;;;24.70;99.90;;;;;;5014305;28;20533;-85
2023/08/20 10:20:29;;;;;;;0.00;0.00;;;25.70;99.90;;;;;;5027687;28;20029;-85
2023/08/20 10:23:00;;;;;;;0.00;0.00;;;24.80;99.90;;;;;;5026819;28;20481;-84
2023/08/20 10:25:26;;;;;;;0.00;0.00;;;;;;;;;;5011451;28;20041;-86
2023/08/20 10:27:53;;;;;;;0.00;0.00;;;24.80;99.90;;;;;;5022684;28;20029;-85
2023/08/20 10:30:25;;;;;;;0.00;0.00;;;25.10;99.90;;;;;;5017090;28;20503;-87
2023/08/20 10:33:03;;;;;;;0.00;0.00;;;27.50;99.90;;;;;;5018871;28;20021;-86
2023/08/20 10:35:47;;;;;;;0.00;0.00;;;25.80;99.90;;;;;;5015142;28;20120;-86
2023/08/20 10:38:16;;;;;;;0.00;0.00;;;25.80;99.90;;;;;;5027159;28;20159;-86
2023/08/20 10:40:49;;;;;;;;;;;25.80;99.90;;;;;;5024723;28;20033;-86
2023/08/20 10:43:46;;;;;;;0.00;0.00;;;25.70;99.90;;;;;;5022276;28;19916;-86
2023/08/20 10:46:20;;;;;;;0.00;0.00;;;25.70;99.90;;;;;;5025475;28;20120;-87
2023/08/20 10:48:54;;;;;;;0.00;0.00;;;25.80;99.90;;;;;;5022523;28;20087;-85
2023/08/20 10:51:32;;;;;;;0.00;0.00;;;26.60;99.90;;;;;;5021486;28;20052;-87
2023/08/20 10:54:01;;;;;;;0.00;0.00;;;26.20;99.90;;;;;;5020939;28;20025;-87
2023/08/20 10:56:43;;;;;;;0.00;0.00;;;26.50;99.90;;;;;;5033285;28;20029;-88
2023/08/20 10:59:30;;;;;;;0.00;0.00;;;26.80;99.90;;;;;;5024509;28;20498;-87
2023/08/20 11:01:58;;;;;;;0.00;0.00;;;26.70;99.90;;;;;;5018497;28;20030;-86
2023/08/20 11:04:28;;;;;;;0.00;0.00;;;26.60;99.90;;;;;;5026299;28;20029;-87
2023/08/20 11:06:55;;;;;;;0.00;0.00;;;26.60;99.90;;;;;;5028514;28;20028;-86
2023/08/20 11:09:26;;;;;;;0.00;0.00;;;26.80;99.90;;;;;;5021503;28;20021;-86
2023/08/20 11:11:52;;;;;;;0.00;0.00;;;26.80;99.90;;;;;;5022116;28;20075;-84
2023/08/20 11:14:19;;;;;;;0.00;0.00;;;27.40;99.90;;;;;;5024570;28;20025;-84
2023/08/20 11:16:45;;;;;;;0.00;0.00;;;27.40;99.90;;;;;;5035831;28;20026;-86
2023/08/20 11:19:12;;;;;;;0.00;0.00;;;;;;;;;;5028425;28;20069;-86
2023/08/20 11:21:39;;;;;;;0.00;0.00;;;27.80;99.90;;;;;;5024016;28;20037;-87
2023/08/20 11:24:09;;;;;;;0.00;0.00;;;28.50;99.90;;;;;;5020971;28;20041;-87
2023/08/20 11:26:35;;;;;;;0.00;0.00;;;27.90;99.50;;;;;;5027958;28;20036;-87
2023/08/20 11:29:03;;;;;;;0.00;0.00;;;;;;;;;;5031564;28;20110;-87
2023/08/20 11:31:29;;;;;;;0.00;0.00;;;27.80;99.90;;;;;;5024062;28;20022;-84
2023/08/20 11:33:56;;;;;;;0.00;0.00;;;28.00;99.90;;;;;;5034735;28;20513;-87
2023/08/20 11:36:22;;;;;;;0.00;0.00;;;29.90;99.90;;;;;;5025410;28;20484;-86
2023/08/20 11:38:52;;;;;;;0.00;0.00;;;28.00;99.90;;;;;;5025505;28;20029;-87
2023/08/20 11:41:18;;;;;;;0.00;0.00;;;;;;;;;;5028716;28;20499;-87
2023/08/20 11:43:44;;;;;;;0.00;0.00;;;;;;;;;;5024814;28;20399;-88
2023/08/20 11:46:15;;;;;;;0.00;0.00;;;27.40;99.90;;;;;;5027397;28;20021;-87
2023/08/20 11:49:00;;;;;;;0.00;0.00;;;27.40;99.90;;;;;;5028369;28;20463;-87
2023/08/20 11:51:26;;;;;;;0.00;0.00;;;;;;;;;;5026637;28;20017;-86
2023/08/20 11:53:52;;;;;;;0.00;0.00;;;;;;;;;;5030021;28;20032;-86
2023/08/20 11:56:18;;;;;;;0.00;0.00;;;26.90;99.90;;;;;;5026847;28;20392;-84
2023/08/20 11:58:44;;;;;;;0.00;0.00;;;;;;;;;;5021905;28;20033;-87
2023/08/20 12:01:10;;;;;;;0.00;0.00;;;;;;;;;;5030048;28;20584;-87
2023/08/20 12:03:37;;;;;;;0.00;0.00;;;26.80;99.90;;;;;;5027666;28;20036;-88
2023/08/20 12:06:20;;;;;;;0.00;0.00;;;26.80;99.90;;;;;;5025887;28;20394;-87
2023/08/20 12:08:46;;;;;;;0.00;0.00;;;;;;;;;;5030074;28;20083;-87
2023/08/20 12:11:12;;;;;;;0.00;0.00;;;;;;;;;;5024526;28;20108;-87
2023/08/20 12:13:37;;;;;;;0.00;0.00;;;27.70;99.90;;;;;;5039837;28;20551;-87
2023/08/20 12:16:03;;;;;;;0.00;0.00;;;28.60;99.90;;;;;;5022643;28;20025;-87
2023/08/20 12:18:29;;;;;;;0.00;0.00;;;28.10;99.90;;;;;;5018496;28;20034;-87
2023/08/20 12:20:55;;;;;;;0.00;0.00;;;;;;;;;;5032461;28;20489;-86
2023/08/20 12:23:21;;;;;;;0.00;0.00;;;;;;;;;;5026980;28;20025;-87
2023/08/20 12:25:51;;;;;;;0.00;0.00;;;28.60;99.90;;;;;;5027976;28;20164;-86
2023/08/20 12:28:17;;;;;;;0.00;0.00;;;;;;;;;;5023892;28;20065;-84
2023/08/20 12:30:43;;;;;;;0.00;0.00;;;29.00;99.90;;;;;;5022560;28;20026;-86
2023/08/20 12:33:10;;;;;;;0.00;0.00;;;;;;;;;;5026294;28;20025;-85
2023/08/20 12:35:36;;;;;;;0.00;0.00;;;;;;;;;;5029707;28;20029;-85
2023/08/20 12:38:02;;;;;;;0.00;0.00;;;29.00;99.50;;;;;;5025672;28;20113;-84
2023/08/20 12:40:29;;;;;;;0.00;0.00;;;29.20;99.90;;;;;;5026948;28;20534;-86
2023/08/20 12:42:55;;;;;;;0.00;0.00;;;;;;;;;;5027125;28;20071;-86
2023/08/20 12:45:20;;;;;;;0.00;0.00;;;29.10;99.80;;;;;;5023853;28;20064;-85
2023/08/20 12:47:46;;;;;;;0.00;0.00;;;29.30;99.40;;;;;;5023749;28;20049;-88
2023/08/20 12:50:13;;;;;;;0.00;0.00;;;29.40;98.60;;;;;;5025972;28;20063;-85
2023/08/20 12:52:39;;;;;;;0.00;0.00;;;;;;;;;;5026220;28;20109;-86
2023/08/20 12:55:05;;;;;;;0.00;0.00;;;28.90;98.50;;;;;;5032161;28;20085;-89
2023/08/20 12:57:31;;;;;;;0.00;0.00;;;;;;;;;;5030177;28;20105;-85
2023/08/20 12:59:57;;;;;;;0.00;0.00;;;28.60;99.40;;;;;;5023807;28;20506;-87
2023/08/20 13:02:23;;;;;;;0.00;0.00;;;28.50;99.80;;;;;;5024119;28;20057;-86
2023/08/20 13:04:50;;;;;;;0.00;0.00;;;28.80;99.90;;;;;;5031457;28;20036;-86
2023/08/20 13:07:16;;;;;;;0.00;0.00;;;29.10;99.40;;;;;;5024941;28;20025;-87
2023/08/20 13:09:42;;;;;;;0.00;0.00;;;29.10;99.60;;;;;;5020515;28;20502;-85
2023/08/20 13:12:12;;;;;;;0.00;0.00;;;29.00;99.20;;;;;;5027382;28;20109;-86
2023/08/20 13:14:38;;;;;;;0.00;0.00;;;28.70;98.80;;;;;;5033003;28;20025;-87
2023/08/20 13:17:05;;;;;;;0.00;0.00;;;28.10;99.10;;;;;;5027217;28;20029;-85
2023/08/20 13:19:31;;;;;;;0.00;0.00;;;;;;;;;;5026847;28;20391;-85
2023/08/20 13:21:56;;;;;;;0.00;0.00;;;28.30;99.10;;;;;;5023225;28;20045;-86
2023/08/20 13:24:22;;;;;;;0.00;0.00;;;;;;;;;;5025009;28;20113;-85
2023/08/20 13:26:48;;;;;;;0.00;0.00;;;28.50;99.30;;;;;;5030222;28;20048;-85
2023/08/20 13:29:13;;;;;;;0.00;0.00;;;28.50;99.40;;;;;;5031434;28;20471;-88
2023/08/20 13:31:39;;;;;;;0.00;0.00;;;;;;;;;;5018628;28;20026;-86
2023/08/20 13:34:05;;;;;;;0.00;0.00;;;28.20;99.90;;;;;;5029607;28;20441;-85